sensor_id;sensor_type;location;lat;lon;timestamp;temperature;humidity
59977;DHT22;45837;51.076;3.578;2023-04-09T00:01:04;18.40;52.70
59977;DHT22;45837;51.076;3.578;2023-04-09T00:03:29;18.30;51.90
59977;DHT22;45837;51.076;3.578;2023-04-09T00:05:55;18.40;52.50
59977;DHT22;45837;51.076;3.578;2023-04-09T00:08:21;18.40;52.60
59977;DHT22;45837;51.076;3.578;2023-04-09T00:10:51;18.40;52.30
59977;DHT22;45837;51.076;3.578;2023-04-09T00:13:17;18.30;52.00
59977;DHT22;45837;51.076;3.578;2023-04-09T00:15:43;18.30;52.10
59977;DHT22;45837;51.076;3.578;2023-04-09T00:18:09;18.30;52.00
59977;DHT22;45837;51.076;3.578;2023-04-09T00:20:35;18.30;52.70
59977;DHT22;45837;51.076;3.578;2023-04-09T00:23:01;18.30;52.50
59977;DHT22;45837;51.076;3.578;2023-04-09T00:25:26;18.30;53.00
59977;DHT22;45837;51.076;3.578;2023-04-09T00:27:53;18.40;52.40
59977;DHT22;45837;51.076;3.578;2023-04-09T00:30:19;18.30;52.10
59977;DHT22;45837;51.076;3.578;2023-04-09T00:32:45;18.30;52.40
59977;DHT22;45837;51.076;3.578;2023-04-09T00:35:10;18.30;52.20
59977;DHT22;45837;51.076;3.578;2023-04-09T00:37:36;18.30;52.60
59977;DHT22;45837;51.076;3.578;2023-04-09T00:40:02;18.40;52.50
59977;DHT22;45837;51.076;3.578;2023-04-09T00:42:32;18.30;52.00
59977;DHT22;45837;51.076;3.578;2023-04-09T00:44:57;18.30;51.90
59977;DHT22;45837;51.076;3.578;2023-04-09T00:47:23;18.30;52.30
59977;DHT22;45837;51.076;3.578;2023-04-09T00:49:49;18.30;52.00
59977;DHT22;45837;51.076;3.578;2023-04-09T00:52:15;18.30;52.40
59977;DHT22;45837;51.076;3.578;2023-04-09T00:54:41;18.30;52.30
59977;DHT22;45837;51.076;3.578;2023-04-09T00:57:06;18.30;52.50
59977;DHT22;45837;51.076;3.578;2023-04-09T00:59:32;18.30;52.40
59977;DHT22;45837;51.076;3.578;2023-04-09T01:01:58;18.30;52.60
59977;DHT22;45837;51.076;3.578;2023-04-09T01:04:23;18.30;52.50
59977;DHT22;45837;51.076;3.578;2023-04-09T01:06:50;18.30;52.30
59977;DHT22;45837;51.076;3.578;2023-04-09T01:16:37;18.30;52.00
59977;DHT22;45837;51.076;3.578;2023-04-09T01:19:09;18.20;52.00
59977;DHT22;45837;51.076;3.578;2023-04-09T01:21:39;18.30;51.90
59977;DHT22;45837;51.076;3.578;2023-04-09T01:29:19;18.20;51.90
59977;DHT22;45837;51.076;3.578;2023-04-09T01:31:46;18.30;52.10
59977;DHT22;45837;51.076;3.578;2023-04-09T01:34:12;18.20;52.00
59977;DHT22;45837;51.076;3.578;2023-04-09T01:36:38;18.20;52.20
59977;DHT22;45837;51.076;3.578;2023-04-09T01:39:04;18.20;52.10
59977;DHT22;45837;51.076;3.578;2023-04-09T01:41:31;18.20;52.40
59977;DHT22;45837;51.076;3.578;2023-04-09T01:43:57;18.20;52.00
59977;DHT22;45837;51.076;3.578;2023-04-09T01:46:28;18.20;52.10
59977;DHT22;45837;51.076;3.578;2023-04-09T01:48:54;18.20;52.00
59977;DHT22;45837;51.076;3.578;2023-04-09T01:51:21;18.20;52.00
59977;DHT22;45837;51.076;3.578;2023-04-09T01:53:47;18.20;52.50
59977;DHT22;45837;51.076;3.578;2023-04-09T01:56:13;18.20;52.00
59977;DHT22;45837;51.076;3.578;2023-04-09T01:58:38;18.20;52.60
59977;DHT22;45837;51.076;3.578;2023-04-09T02:01:08;18.20;52.20
59977;DHT22;45837;51.076;3.578;2023-04-09T02:03:36;18.20;52.10
59977;DHT22;45837;51.076;3.578;2023-04-09T02:08:31;18.20;51.90
59977;DHT22;45837;51.076;3.578;2023-04-09T02:10:57;18.20;52.00
59977;DHT22;45837;51.076;3.578;2023-04-09T02:13:24;18.20;52.00
59977;DHT22;45837;51.076;3.578;2023-04-09T02:15:54;18.20;52.00
59977;DHT22;45837;51.076;3.578;2023-04-09T02:20:46;18.20;52.70
59977;DHT22;45837;51.076;3.578;2023-04-09T02:23:12;18.20;52.40
59977;DHT22;45837;51.076;3.578;2023-04-09T02:25:39;18.20;52.00
59977;DHT22;45837;51.076;3.578;2023-04-09T02:28:05;18.20;52.50
59977;DHT22;45837;51.076;3.578;2023-04-09T02:30:31;18.20;52.40
59977;DHT22;45837;51.076;3.578;2023-04-09T02:32:56;18.20;52.60
59977;DHT22;45837;51.076;3.578;2023-04-09T02:35:22;18.20;52.40
59977;DHT22;45837;51.076;3.578;2023-04-09T02:37:48;18.20;52.40
59977;DHT22;45837;51.076;3.578;2023-04-09T02:40:13;18.10;52.50
59977;DHT22;45837;51.076;3.578;2023-04-09T02:42:39;18.10;52.40
59977;DHT22;45837;51.076;3.578;2023-04-09T02:45:05;18.20;52.40
59977;DHT22;45837;51.076;3.578;2023-04-09T02:47:32;18.20;52.00
59977;DHT22;45837;51.076;3.578;2023-04-09T02:49:57;18.10;52.60
59977;DHT22;45837;51.076;3.578;2023-04-09T02:52:23;18.10;52.40
59977;DHT22;45837;51.076;3.578;2023-04-09T02:54:51;18.10;52.10
59977;DHT22;45837;51.076;3.578;2023-04-09T02:57:16;18.10;52.00
59977;DHT22;45837;51.076;3.578;2023-04-09T02:59:43;18.10;52.20
59977;DHT22;45837;51.076;3.578;2023-04-09T03:02:08;18.10;51.90
59977;DHT22;45837;51.076;3.578;2023-04-09T03:04:34;18.10;52.50
59977;DHT22;45837;51.076;3.578;2023-04-09T03:07:00;18.10;52.30
59977;DHT22;45837;51.076;3.578;2023-04-09T03:09:26;18.10;52.50
59977;DHT22;45837;51.076;3.578;2023-04-09T03:11:51;18.10;52.50
59977;DHT22;45837;51.076;3.578;2023-04-09T03:14:17;18.10;52.30
59977;DHT22;45837;51.076;3.578;2023-04-09T03:16:43;18.10;52.40
59977;DHT22;45837;51.076;3.578;2023-04-09T03:19:08;18.10;52.30
59977;DHT22;45837;51.076;3.578;2023-04-09T03:21:36;18.10;52.30
59977;DHT22;45837;51.076;3.578;2023-04-09T03:24:01;18.10;52.30
59977;DHT22;45837;51.076;3.578;2023-04-09T03:26:28;18.10;52.20
59977;DHT22;45837;51.076;3.578;2023-04-09T03:29:02;18.10;52.20
59977;DHT22;45837;51.076;3.578;2023-04-09T03:31:28;17.80;51.90
59977;DHT22;45837;51.076;3.578;2023-04-09T03:33:54;18.10;52.40
59977;DHT22;45837;51.076;3.578;2023-04-09T03:36:19;18.10;52.10
59977;DHT22;45837;51.076;3.578;2023-04-09T03:39:00;18.10;52.10
59977;DHT22;45837;51.076;3.578;2023-04-09T03:41:30;18.10;52.50
59977;DHT22;45837;51.076;3.578;2023-04-09T03:43:59;18.10;52.90
59977;DHT22;45837;51.076;3.578;2023-04-09T03:46:30;18.00;52.40
59977;DHT22;45837;51.076;3.578;2023-04-09T03:48:57;18.10;52.20
59977;DHT22;45837;51.076;3.578;2023-04-09T03:51:32;18.10;52.30
59977;DHT22;45837;51.076;3.578;2023-04-09T03:53:58;18.00;52.50
59977;DHT22;45837;51.076;3.578;2023-04-09T03:56:24;18.00;53.10
59977;DHT22;45837;51.076;3.578;2023-04-09T03:58:50;18.10;52.20
59977;DHT22;45837;51.076;3.578;2023-04-09T04:01:18;18.00;52.30
59977;DHT22;45837;51.076;3.578;2023-04-09T04:03:53;18.00;52.00
59977;DHT22;45837;51.076;3.578;2023-04-09T04:06:24;18.00;52.00
59977;DHT22;45837;51.076;3.578;2023-04-09T04:09:02;18.00;52.00
59977;DHT22;45837;51.076;3.578;2023-04-09T04:11:46;18.00;52.50
59977;DHT22;45837;51.076;3.578;2023-04-09T04:14:13;18.00;53.00
59977;DHT22;45837;51.076;3.578;2023-04-09T04:16:42;18.00;51.90
59977;DHT22;45837;51.076;3.578;2023-04-09T04:19:09;18.00;52.80
59977;DHT22;45837;51.076;3.578;2023-04-09T04:21:41;18.00;52.50
59977;DHT22;45837;51.076;3.578;2023-04-09T04:24:07;18.00;53.10
59977;DHT22;45837;51.076;3.578;2023-04-09T04:26:32;18.00;52.60
59977;DHT22;45837;51.076;3.578;2023-04-09T04:28:58;18.00;52.40
59977;DHT22;45837;51.076;3.578;2023-04-09T04:31:42;18.00;52.40
59977;DHT22;45837;51.076;3.578;2023-04-09T04:34:09;18.00;52.70
59977;DHT22;45837;51.076;3.578;2023-04-09T04:36:35;18.00;52.40
59977;DHT22;45837;51.076;3.578;2023-04-09T04:39:01;18.00;51.90
59977;DHT22;45837;51.076;3.578;2023-04-09T04:41:39;18.00;52.10
59977;DHT22;45837;51.076;3.578;2023-04-09T04:44:16;18.00;52.20
59977;DHT22;45837;51.076;3.578;2023-04-09T04:46:42;18.00;52.40
59977;DHT22;45837;51.076;3.578;2023-04-09T04:49:09;18.00;52.70
59977;DHT22;45837;51.076;3.578;2023-04-09T04:51:42;18.00;52.50
59977;DHT22;45837;51.076;3.578;2023-04-09T04:54:11;18.00;53.50
59977;DHT22;45837;51.076;3.578;2023-04-09T04:56:37;18.00;52.50
59977;DHT22;45837;51.076;3.578;2023-04-09T04:59:11;18.00;52.50
59977;DHT22;45837;51.076;3.578;2023-04-09T05:01:58;18.00;52.50
59977;DHT22;45837;51.076;3.578;2023-04-09T05:04:26;17.90;52.80
59977;DHT22;45837;51.076;3.578;2023-04-09T05:06:55;18.00;52.50
59977;DHT22;45837;51.076;3.578;2023-04-09T05:09:22;17.90;52.70
59977;DHT22;45837;51.076;3.578;2023-04-09T05:12:00;18.00;52.70
59977;DHT22;45837;51.076;3.578;2023-04-09T05:14:27;18.00;52.60
59977;DHT22;45837;51.076;3.578;2023-04-09T05:16:52;18.00;52.90
59977;DHT22;45837;51.076;3.578;2023-04-09T05:19:22;17.90;52.80
59977;DHT22;45837;51.076;3.578;2023-04-09T05:21:54;18.00;52.60
59977;DHT22;45837;51.076;3.578;2023-04-09T05:24:21;17.90;52.40
59977;DHT22;45837;51.076;3.578;2023-04-09T05:26:47;17.90;52.60
59977;DHT22;45837;51.076;3.578;2023-04-09T05:29:13;17.90;52.80
59977;DHT22;45837;51.076;3.578;2023-04-09T05:31:38;17.90;52.50
59977;DHT22;45837;51.076;3.578;2023-04-09T05:34:09;17.90;52.60
59977;DHT22;45837;51.076;3.578;2023-04-09T05:36:42;18.00;52.30
59977;DHT22;45837;51.076;3.578;2023-04-09T05:39:08;17.90;52.80
59977;DHT22;45837;51.076;3.578;2023-04-09T05:41:35;18.00;52.80
59977;DHT22;45837;51.076;3.578;2023-04-09T05:44:21;18.00;52.60
59977;DHT22;45837;51.076;3.578;2023-04-09T05:46:49;17.90;53.30
59977;DHT22;45837;51.076;3.578;2023-04-09T05:49:19;18.00;52.90
59977;DHT22;45837;51.076;3.578;2023-04-09T05:51:48;17.90;52.80
59977;DHT22;45837;51.076;3.578;2023-04-09T05:54:20;18.00;52.40
59977;DHT22;45837;51.076;3.578;2023-04-09T05:56:46;18.00;53.10
59977;DHT22;45837;51.076;3.578;2023-04-09T05:59:13;18.00;52.60
59977;DHT22;45837;51.076;3.578;2023-04-09T06:01:39;17.90;53.10
59977;DHT22;45837;51.076;3.578;2023-04-09T06:04:05;18.00;52.90
59977;DHT22;45837;51.076;3.578;2023-04-09T06:06:30;18.00;52.80
59977;DHT22;45837;51.076;3.578;2023-04-09T06:08:58;18.00;52.50
59977;DHT22;45837;51.076;3.578;2023-04-09T06:11:24;18.00;52.70
59977;DHT22;45837;51.076;3.578;2023-04-09T06:13:50;18.00;52.40
59977;DHT22;45837;51.076;3.578;2023-04-09T06:16:16;18.00;52.70
59977;DHT22;45837;51.076;3.578;2023-04-09T06:18:42;18.10;52.70
59977;DHT22;45837;51.076;3.578;2023-04-09T06:21:07;18.00;52.60
59977;DHT22;45837;51.076;3.578;2023-04-09T06:23:34;18.00;52.30
59977;DHT22;45837;51.076;3.578;2023-04-09T06:26:00;18.00;52.20
59977;DHT22;45837;51.076;3.578;2023-04-09T06:28:29;18.10;52.40
59977;DHT22;45837;51.076;3.578;2023-04-09T06:30:56;18.10;52.00
59977;DHT22;45837;51.076;3.578;2023-04-09T06:33:21;16.20;51.50
59977;DHT22;45837;51.076;3.578;2023-04-09T06:35:47;18.10;52.60
59977;DHT22;45837;51.076;3.578;2023-04-09T06:38:14;18.10;52.40
59977;DHT22;45837;51.076;3.578;2023-04-09T06:40:39;18.10;52.00
59977;DHT22;45837;51.076;3.578;2023-04-09T06:43:05;18.10;53.00
59977;DHT22;45837;51.076;3.578;2023-04-09T06:45:48;18.10;52.90
59977;DHT22;45837;51.076;3.578;2023-04-09T06:48:14;18.20;52.60
59977;DHT22;45837;51.076;3.578;2023-04-09T06:50:40;18.20;52.70
59977;DHT22;45837;51.076;3.578;2023-04-09T06:53:05;18.20;53.10
59977;DHT22;45837;51.076;3.578;2023-04-09T06:55:31;18.20;52.70
59977;DHT22;45837;51.076;3.578;2023-04-09T06:57:57;18.20;52.80
59977;DHT22;45837;51.076;3.578;2023-04-09T07:00:22;18.20;52.60
59977;DHT22;45837;51.076;3.578;2023-04-09T07:02:48;18.20;52.80
59977;DHT22;45837;51.076;3.578;2023-04-09T07:05:14;18.20;52.40
59977;DHT22;45837;51.076;3.578;2023-04-09T07:07:40;18.20;53.10
59977;DHT22;45837;51.076;3.578;2023-04-09T07:10:05;18.30;52.50
59977;DHT22;45837;51.076;3.578;2023-04-09T07:12:32;18.20;52.00
59977;DHT22;45837;51.076;3.578;2023-04-09T07:14:59;18.30;52.10
59977;DHT22;45837;51.076;3.578;2023-04-09T07:17:25;18.30;52.30
59977;DHT22;45837;51.076;3.578;2023-04-09T07:19:50;18.40;52.60
59977;DHT22;45837;51.076;3.578;2023-04-09T07:22:16;18.40;52.80
59977;DHT22;45837;51.076;3.578;2023-04-09T07:24:42;18.40;51.80
59977;DHT22;45837;51.076;3.578;2023-04-09T07:27:08;18.40;52.60
59977;DHT22;45837;51.076;3.578;2023-04-09T07:29:34;18.40;52.10
59977;DHT22;45837;51.076;3.578;2023-04-09T07:32:00;18.40;52.30
59977;DHT22;45837;51.076;3.578;2023-04-09T07:34:27;18.40;52.10
59977;DHT22;45837;51.076;3.578;2023-04-09T07:36:52;18.40;52.30
59977;DHT22;45837;51.076;3.578;2023-04-09T07:39:18;18.50;52.50
59977;DHT22;45837;51.076;3.578;2023-04-09T07:41:45;18.50;52.00
59977;DHT22;45837;51.076;3.578;2023-04-09T07:44:12;18.40;52.10
59977;DHT22;45837;51.076;3.578;2023-04-09T07:46:38;18.40;51.80
59977;DHT22;45837;51.076;3.578;2023-04-09T07:49:04;18.50;52.30
59977;DHT22;45837;51.076;3.578;2023-04-09T07:51:30;18.50;52.30
59977;DHT22;45837;51.076;3.578;2023-04-09T07:53:55;18.50;52.60
59977;DHT22;45837;51.076;3.578;2023-04-09T07:56:21;18.50;52.50
59977;DHT22;45837;51.076;3.578;2023-04-09T07:58:47;18.50;52.40
59977;DHT22;45837;51.076;3.578;2023-04-09T08:01:16;18.50;51.90
59977;DHT22;45837;51.076;3.578;2023-04-09T08:03:42;18.50;52.20
59977;DHT22;45837;51.076;3.578;2023-04-09T08:06:07;18.60;52.40
59977;DHT22;45837;51.076;3.578;2023-04-09T08:08:33;18.60;52.20
59977;DHT22;45837;51.076;3.578;2023-04-09T08:11:00;18.60;52.00
59977;DHT22;45837;51.076;3.578;2023-04-09T08:13:25;18.60;52.60
59977;DHT22;45837;51.076;3.578;2023-04-09T08:15:51;18.60;52.40
59977;DHT22;45837;51.076;3.578;2023-04-09T08:18:17;18.70;52.00
59977;DHT22;45837;51.076;3.578;2023-04-09T08:20:43;18.70;52.40
59977;DHT22;45837;51.076;3.578;2023-04-09T08:23:10;18.70;52.00
59977;DHT22;45837;51.076;3.578;2023-04-09T08:25:36;20.00;52.50
59977;DHT22;45837;51.076;3.578;2023-04-09T08:28:01;18.70;52.50
59977;DHT22;45837;51.076;3.578;2023-04-09T08:30:27;18.80;52.50
59977;DHT22;45837;51.076;3.578;2023-04-09T08:32:53;18.80;52.20
59977;DHT22;45837;51.076;3.578;2023-04-09T08:35:18;18.80;52.20
59977;DHT22;45837;51.076;3.578;2023-04-09T08:37:44;18.80;52.20
59977;DHT22;45837;51.076;3.578;2023-04-09T08:40:10;18.80;52.50
59977;DHT22;45837;51.076;3.578;2023-04-09T08:42:38;18.80;52.10
59977;DHT22;45837;51.076;3.578;2023-04-09T08:45:07;18.80;51.70
59977;DHT22;45837;51.076;3.578;2023-04-09T08:47:33;18.90;52.00
59977;DHT22;45837;51.076;3.578;2023-04-09T08:50:00;18.90;51.70
59977;DHT22;45837;51.076;3.578;2023-04-09T08:52:30;18.90;52.20
59977;DHT22;45837;51.076;3.578;2023-04-09T08:54:56;18.90;51.60
59977;DHT22;45837;51.076;3.578;2023-04-09T08:57:22;18.90;52.60
59977;DHT22;45837;51.076;3.578;2023-04-09T08:59:48;18.90;52.20
59977;DHT22;45837;51.076;3.578;2023-04-09T09:02:13;18.90;52.10
59977;DHT22;45837;51.076;3.578;2023-04-09T09:04:46;18.90;52.30
59977;DHT22;45837;51.076;3.578;2023-04-09T09:07:12;19.00;51.70
59977;DHT22;45837;51.076;3.578;2023-04-09T09:10:11;19.00;51.90
59977;DHT22;45837;51.076;3.578;2023-04-09T09:12:34;19.00;51.60
59977;DHT22;45837;51.076;3.578;2023-04-09T09:14:59;19.00;51.60
59977;DHT22;45837;51.076;3.578;2023-04-09T09:17:25;19.00;52.60
59977;DHT22;45837;51.076;3.578;2023-04-09T09:19:51;19.00;52.50
59977;DHT22;45837;51.076;3.578;2023-04-09T09:22:17;19.00;52.30
59977;DHT22;45837;51.076;3.578;2023-04-09T09:24:46;19.00;52.30
59977;DHT22;45837;51.076;3.578;2023-04-09T09:27:34;19.10;51.70
59977;DHT22;45837;51.076;3.578;2023-04-09T09:30:06;19.10;51.70
59977;DHT22;45837;51.076;3.578;2023-04-09T09:32:33;19.10;52.20
59977;DHT22;45837;51.076;3.578;2023-04-09T09:35:05;19.10;52.50
59977;DHT22;45837;51.076;3.578;2023-04-09T09:37:31;19.10;51.70
59977;DHT22;45837;51.076;3.578;2023-04-09T09:39:57;19.20;52.00
59977;DHT22;45837;51.076;3.578;2023-04-09T09:42:23;19.20;52.10
59977;DHT22;45837;51.076;3.578;2023-04-09T09:44:50;19.20;52.50
59977;DHT22;45837;51.076;3.578;2023-04-09T09:47:17;19.20;51.90
59977;DHT22;45837;51.076;3.578;2023-04-09T09:49:44;19.20;51.80
59977;DHT22;45837;51.076;3.578;2023-04-09T09:52:10;19.20;51.90
59977;DHT22;45837;51.076;3.578;2023-04-09T09:54:39;19.20;52.40
59977;DHT22;45837;51.076;3.578;2023-04-09T09:57:09;19.20;51.70
59977;DHT22;45837;51.076;3.578;2023-04-09T09:59:42;19.30;51.90
59977;DHT22;45837;51.076;3.578;2023-04-09T10:02:13;19.30;51.80
59977;DHT22;45837;51.076;3.578;2023-04-09T10:04:42;19.30;52.30
59977;DHT22;45837;51.076;3.578;2023-04-09T10:07:08;19.30;52.20
59977;DHT22;45837;51.076;3.578;2023-04-09T10:09:34;19.30;52.30
59977;DHT22;45837;51.076;3.578;2023-04-09T10:12:02;19.30;52.00
59977;DHT22;45837;51.076;3.578;2023-04-09T10:14:29;19.30;52.00
59977;DHT22;45837;51.076;3.578;2023-04-09T10:16:55;19.30;51.90
59977;DHT22;45837;51.076;3.578;2023-04-09T10:19:21;19.30;52.70
59977;DHT22;45837;51.076;3.578;2023-04-09T10:22:01;19.30;52.50
59977;DHT22;45837;51.076;3.578;2023-04-09T10:24:30;19.30;51.70
59977;DHT22;45837;51.076;3.578;2023-04-09T10:27:07;19.40;51.80
59977;DHT22;45837;51.076;3.578;2023-04-09T10:29:33;19.40;51.80
59977;DHT22;45837;51.076;3.578;2023-04-09T10:32:03;19.40;52.10
59977;DHT22;45837;51.076;3.578;2023-04-09T10:34:33;19.40;51.70
59977;DHT22;45837;51.076;3.578;2023-04-09T10:36:59;19.40;51.90
59977;DHT22;45837;51.076;3.578;2023-04-09T10:39:26;19.40;52.50
59977;DHT22;45837;51.076;3.578;2023-04-09T10:41:52;19.40;51.90
59977;DHT22;45837;51.076;3.578;2023-04-09T10:44:19;19.40;51.90
59977;DHT22;45837;51.076;3.578;2023-04-09T10:46:45;19.40;51.90
59977;DHT22;45837;51.076;3.578;2023-04-09T10:49:12;19.50;52.30
59977;DHT22;45837;51.076;3.578;2023-04-09T10:51:39;19.30;51.80
59977;DHT22;45837;51.076;3.578;2023-04-09T10:59:34;19.50;51.60
59977;DHT22;45837;51.076;3.578;2023-04-09T11:02:00;19.50;52.10
59977;DHT22;45837;51.076;3.578;2023-04-09T11:04:38;19.50;51.70
59977;DHT22;45837;51.076;3.578;2023-04-09T11:07:06;19.50;51.60
59977;DHT22;45837;51.076;3.578;2023-04-09T11:09:36;19.50;51.80
59977;DHT22;45837;51.076;3.578;2023-04-09T11:12:01;19.50;51.60
59977;DHT22;45837;51.076;3.578;2023-04-09T11:14:28;19.50;52.40
59977;DHT22;45837;51.076;3.578;2023-04-09T11:16:53;19.50;52.60
59977;DHT22;45837;51.076;3.578;2023-04-09T11:19:20;19.50;51.70
59977;DHT22;45837;51.076;3.578;2023-04-09T11:21:46;19.50;52.20
59977;DHT22;45837;51.076;3.578;2023-04-09T11:24:12;19.60;51.80
59977;DHT22;45837;51.076;3.578;2023-04-09T11:26:38;19.50;51.80
59977;DHT22;45837;51.076;3.578;2023-04-09T11:29:04;19.50;52.30
59977;DHT22;45837;51.076;3.578;2023-04-09T11:31:32;19.50;51.80
59977;DHT22;45837;51.076;3.578;2023-04-09T11:33:58;19.50;52.50
59977;DHT22;45837;51.076;3.578;2023-04-09T11:36:23;19.50;52.20
59977;DHT22;45837;51.076;3.578;2023-04-09T11:38:49;19.50;52.60
59977;DHT22;45837;51.076;3.578;2023-04-09T11:41:15;19.50;52.20
59977;DHT22;45837;51.076;3.578;2023-04-09T11:43:41;19.50;52.10
59977;DHT22;45837;51.076;3.578;2023-04-09T11:46:07;19.50;52.30
59977;DHT22;45837;51.076;3.578;2023-04-09T11:48:33;19.50;52.10
59977;DHT22;45837;51.076;3.578;2023-04-09T11:50:59;19.60;52.70
59977;DHT22;45837;51.076;3.578;2023-04-09T11:53:28;19.50;51.70
59977;DHT22;45837;51.076;3.578;2023-04-09T11:55:55;19.50;51.80
59977;DHT22;45837;51.076;3.578;2023-04-09T11:58:21;19.50;52.30
59977;DHT22;45837;51.076;3.578;2023-04-09T12:00:47;19.60;51.90
59977;DHT22;45837;51.076;3.578;2023-04-09T12:03:12;19.50;52.30
59977;DHT22;45837;51.076;3.578;2023-04-09T12:05:43;19.50;52.50
59977;DHT22;45837;51.076;3.578;2023-04-09T12:08:09;19.50;51.80
59977;DHT22;45837;51.076;3.578;2023-04-09T12:10:36;19.50;52.40
59977;DHT22;45837;51.076;3.578;2023-04-09T12:13:02;19.50;51.90
59977;DHT22;45837;51.076;3.578;2023-04-09T12:15:32;19.50;52.30
59977;DHT22;45837;51.076;3.578;2023-04-09T12:17:58;19.50;51.80
59977;DHT22;45837;51.076;3.578;2023-04-09T12:22:56;19.50;51.90
59977;DHT22;45837;51.076;3.578;2023-04-09T12:25:21;19.50;52.00
59977;DHT22;45837;51.076;3.578;2023-04-09T12:27:47;19.50;52.60
59977;DHT22;45837;51.076;3.578;2023-04-09T12:30:13;19.50;52.60
59977;DHT22;45837;51.076;3.578;2023-04-09T12:32:38;19.50;52.50
59977;DHT22;45837;51.076;3.578;2023-04-09T12:35:04;19.50;52.70
59977;DHT22;45837;51.076;3.578;2023-04-09T12:37:30;19.50;52.50
59977;DHT22;45837;51.076;3.578;2023-04-09T12:39:56;19.50;52.60
59977;DHT22;45837;51.076;3.578;2023-04-09T12:42:21;19.40;52.90
59977;DHT22;45837;51.076;3.578;2023-04-09T12:44:47;19.50;53.00
59977;DHT22;45837;51.076;3.578;2023-04-09T12:47:13;19.50;52.60
59977;DHT22;45837;51.076;3.578;2023-04-09T12:49:38;19.40;52.60
59977;DHT22;45837;51.076;3.578;2023-04-09T12:52:04;19.50;52.80
59977;DHT22;45837;51.076;3.578;2023-04-09T12:54:30;19.50;52.80
59977;DHT22;45837;51.076;3.578;2023-04-09T12:56:56;19.50;52.60
59977;DHT22;45837;51.076;3.578;2023-04-09T12:59:22;19.50;53.00
59977;DHT22;45837;51.076;3.578;2023-04-09T13:01:47;19.50;52.80
59977;DHT22;45837;51.076;3.578;2023-04-09T13:04:13;19.40;52.70
59977;DHT22;45837;51.076;3.578;2023-04-09T13:06:39;19.40;53.00
59977;DHT22;45837;51.076;3.578;2023-04-09T13:09:04;19.40;53.20
59977;DHT22;45837;51.076;3.578;2023-04-09T13:11:30;19.40;52.80
59977;DHT22;45837;51.076;3.578;2023-04-09T13:13:56;19.40;52.20
59977;DHT22;45837;51.076;3.578;2023-04-09T13:16:22;19.40;52.90
59977;DHT22;45837;51.076;3.578;2023-04-09T13:18:47;19.40;52.60
59977;DHT22;45837;51.076;3.578;2023-04-09T13:21:13;19.50;52.60
59977;DHT22;45837;51.076;3.578;2023-04-09T13:23:43;19.40;52.40
59977;DHT22;45837;51.076;3.578;2023-04-09T13:26:09;19.40;52.10
59977;DHT22;45837;51.076;3.578;2023-04-09T13:28:34;19.50;52.70
59977;DHT22;45837;51.076;3.578;2023-04-09T13:31:01;19.20;52.40
59977;DHT22;45837;51.076;3.578;2023-04-09T13:33:27;19.40;52.10
59977;DHT22;45837;51.076;3.578;2023-04-09T13:35:52;19.50;52.70
59977;DHT22;45837;51.076;3.578;2023-04-09T13:38:18;19.40;52.60
59977;DHT22;45837;51.076;3.578;2023-04-09T13:40:44;19.40;52.50
59977;DHT22;45837;51.076;3.578;2023-04-09T13:43:10;19.40;52.40
59977;DHT22;45837;51.076;3.578;2023-04-09T13:45:36;19.40;52.60
59977;DHT22;45837;51.076;3.578;2023-04-09T13:48:01;19.50;53.00
59977;DHT22;45837;51.076;3.578;2023-04-09T13:50:27;19.40;52.50
59977;DHT22;45837;51.076;3.578;2023-04-09T13:52:53;19.40;52.60
59977;DHT22;45837;51.076;3.578;2023-04-09T13:55:19;19.40;52.60
59977;DHT22;45837;51.076;3.578;2023-04-09T13:57:44;19.40;52.50
59977;DHT22;45837;51.076;3.578;2023-04-09T14:00:10;19.40;52.50
59977;DHT22;45837;51.076;3.578;2023-04-09T14:02:36;19.40;52.20
59977;DHT22;45837;51.076;3.578;2023-04-09T14:05:02;19.40;53.10
59977;DHT22;45837;51.076;3.578;2023-04-09T14:07:28;19.40;52.60
59977;DHT22;45837;51.076;3.578;2023-04-09T14:09:53;19.40;52.60
59977;DHT22;45837;51.076;3.578;2023-04-09T14:12:19;19.50;52.40
59977;DHT22;45837;51.076;3.578;2023-04-09T14:14:45;19.40;52.20
59977;DHT22;45837;51.076;3.578;2023-04-09T14:17:11;19.40;52.60
59977;DHT22;45837;51.076;3.578;2023-04-09T14:19:36;19.40;52.70
59977;DHT22;45837;51.076;3.578;2023-04-09T14:22:03;19.40;52.80
59977;DHT22;45837;51.076;3.578;2023-04-09T14:24:31;19.50;52.20
59977;DHT22;45837;51.076;3.578;2023-04-09T14:27:07;19.40;52.30
59977;DHT22;45837;51.076;3.578;2023-04-09T14:29:33;19.40;51.80
59977;DHT22;45837;51.076;3.578;2023-04-09T14:31:59;19.50;52.30
59977;DHT22;45837;51.076;3.578;2023-04-09T14:34:25;19.40;52.20
59977;DHT22;45837;51.076;3.578;2023-04-09T14:36:51;19.40;52.00
59977;DHT22;45837;51.076;3.578;2023-04-09T14:39:17;19.40;52.30
59977;DHT22;45837;51.076;3.578;2023-04-09T14:41:43;19.40;52.50
59977;DHT22;45837;51.076;3.578;2023-04-09T14:44:09;19.50;52.80
59977;DHT22;45837;51.076;3.578;2023-04-09T14:46:35;19.40;52.10
59977;DHT22;45837;51.076;3.578;2023-04-09T14:49:01;19.40;52.60
59977;DHT22;45837;51.076;3.578;2023-04-09T14:51:27;19.40;52.40
59977;DHT22;45837;51.076;3.578;2023-04-09T14:53:53;19.40;52.00
59977;DHT22;45837;51.076;3.578;2023-04-09T14:56:18;19.40;52.90
59977;DHT22;45837;51.076;3.578;2023-04-09T14:58:44;19.40;52.40
59977;DHT22;45837;51.076;3.578;2023-04-09T15:01:10;19.40;52.30
59977;DHT22;45837;51.076;3.578;2023-04-09T15:03:36;19.50;52.40
59977;DHT22;45837;51.076;3.578;2023-04-09T15:06:02;19.40;52.40
59977;DHT22;45837;51.076;3.578;2023-04-09T15:08:28;19.50;52.80
59977;DHT22;45837;51.076;3.578;2023-04-09T15:10:53;19.50;53.00
59977;DHT22;45837;51.076;3.578;2023-04-09T15:13:19;19.50;52.60
59977;DHT22;45837;51.076;3.578;2023-04-09T15:15:45;19.50;52.50
59977;DHT22;45837;51.076;3.578;2023-04-09T15:18:10;19.50;52.50
59977;DHT22;45837;51.076;3.578;2023-04-09T15:20:36;19.50;52.90
59977;DHT22;45837;51.076;3.578;2023-04-09T15:23:02;19.50;51.90
59977;DHT22;45837;51.076;3.578;2023-04-09T15:25:28;19.50;52.90
59977;DHT22;45837;51.076;3.578;2023-04-09T15:27:53;19.50;52.60
59977;DHT22;45837;51.076;3.578;2023-04-09T15:30:19;19.50;52.40
59977;DHT22;45837;51.076;3.578;2023-04-09T15:32:45;19.50;52.60
59977;DHT22;45837;51.076;3.578;2023-04-09T15:35:10;19.50;52.40
59977;DHT22;45837;51.076;3.578;2023-04-09T15:37:38;19.50;52.40
59977;DHT22;45837;51.076;3.578;2023-04-09T15:40:05;19.50;52.30
59977;DHT22;45837;51.076;3.578;2023-04-09T15:42:31;19.50;52.20
59977;DHT22;45837;51.076;3.578;2023-04-09T15:44:56;19.50;53.00
59977;DHT22;45837;51.076;3.578;2023-04-09T15:47:22;19.50;52.30
59977;DHT22;45837;51.076;3.578;2023-04-09T15:49:48;19.50;52.60
59977;DHT22;45837;51.076;3.578;2023-04-09T15:52:14;19.50;52.40
59977;DHT22;45837;51.076;3.578;2023-04-09T15:54:39;19.60;52.90